sensor_id;sensor_type;location;lat;lon;timestamp;temperature;humidity
43087;DHT22;28708;52.224;6.924;2024-03-22T00:00:11;10.10;99.90
43087;DHT22;28708;52.224;6.924;2024-03-22T00:02:40;10.10;99.90
43087;DHT22;28708;52.224;6.924;2024-03-22T00:05:05;10.10;99.90
43087;DHT22;28708;52.224;6.924;2024-03-22T00:07:31;10.10;99.90
43087;DHT22;28708;52.224;6.924;2024-03-22T00:09:57;10.10;99.90
43087;DHT22;28708;52.224;6.924;2024-03-22T00:12:23;10.10;99.90
43087;DHT22;28708;52.224;6.924;2024-03-22T00:14:48;10.20;99.90
43087;DHT22;28708;52.224;6.924;2024-03-22T00:17:16;10.20;99.90
43087;DHT22;28708;52.224;6.924;2024-03-22T00:19:42;10.20;99.90
43087;DHT22;28708;52.224;6.924;2024-03-22T00:22:07;10.20;99.90
43087;DHT22;28708;52.224;6.924;2024-03-22T00:24:33;10.20;99.90
43087;DHT22;28708;52.224;6.924;2024-03-22T00:26:59;10.20;99.90
43087;DHT22;28708;52.224;6.924;2024-03-22T00:29:24;10.20;99.90
43087;DHT22;28708;52.224;6.924;2024-03-22T00:31:51;10.20;99.90
43087;DHT22;28708;52.224;6.924;2024-03-22T00:34:17;10.20;99.90
43087;DHT22;28708;52.224;6.924;2024-03-22T00:36:42;10.20;99.90
43087;DHT22;28708;52.224;6.924;2024-03-22T00:39:08;10.20;99.90
43087;DHT22;28708;52.224;6.924;2024-03-22T00:41:34;10.30;99.90
43087;DHT22;28708;52.224;6.924;2024-03-22T00:43:59;10.30;99.90
43087;DHT22;28708;52.224;6.924;2024-03-22T00:46:25;10.30;99.90
43087;DHT22;28708;52.224;6.924;2024-03-22T00:48:51;10.20;99.90
43087;DHT22;28708;52.224;6.924;2024-03-22T00:51:16;10.30;99.90
43087;DHT22;28708;52.224;6.924;2024-03-22T00:53:42;10.20;99.90
43087;DHT22;28708;52.224;6.924;2024-03-22T00:56:07;10.20;99.90
43087;DHT22;28708;52.224;6.924;2024-03-22T00:58:33;10.20;99.90
43087;DHT22;28708;52.224;6.924;2024-03-22T01:00:59;10.30;99.90
43087;DHT22;28708;52.224;6.924;2024-03-22T01:03:24;10.30;99.90
43087;DHT22;28708;52.224;6.924;2024-03-22T01:05:50;10.40;99.90
43087;DHT22;28708;52.224;6.924;2024-03-22T01:08:16;10.40;99.90
43087;DHT22;28708;52.224;6.924;2024-03-22T01:10:41;10.40;99.90
43087;DHT22;28708;52.224;6.924;2024-03-22T01:13:07;10.40;99.90
43087;DHT22;28708;52.224;6.924;2024-03-22T01:15:33;10.40;99.90
43087;DHT22;28708;52.224;6.924;2024-03-22T01:17:58;10.40;99.90
43087;DHT22;28708;52.224;6.924;2024-03-22T01:20:24;10.40;99.90
43087;DHT22;28708;52.224;6.924;2024-03-22T01:22:50;10.40;99.90
43087;DHT22;28708;52.224;6.924;2024-03-22T01:25:15;10.40;99.90
43087;DHT22;28708;52.224;6.924;2024-03-22T01:27:42;10.40;99.90
43087;DHT22;28708;52.224;6.924;2024-03-22T01:30:08;10.40;99.90
43087;DHT22;28708;52.224;6.924;2024-03-22T01:32:35;10.40;99.90
43087;DHT22;28708;52.224;6.924;2024-03-22T01:35:01;10.40;99.90
43087;DHT22;28708;52.224;6.924;2024-03-22T01:37:26;10.40;99.90
43087;DHT22;28708;52.224;6.924;2024-03-22T01:39:52;10.40;99.90
43087;DHT22;28708;52.224;6.924;2024-03-22T01:42:18;10.40;99.90
43087;DHT22;28708;52.224;6.924;2024-03-22T01:44:43;10.40;99.90
43087;DHT22;28708;52.224;6.924;2024-03-22T01:47:09;10.40;99.90
43087;DHT22;28708;52.224;6.924;2024-03-22T01:49:35;10.40;99.90
43087;DHT22;28708;52.224;6.924;2024-03-22T01:52:01;10.40;99.90
43087;DHT22;28708;52.224;6.924;2024-03-22T01:54:28;10.40;99.90
43087;DHT22;28708;52.224;6.924;2024-03-22T01:56:55;10.40;99.90
43087;DHT22;28708;52.224;6.924;2024-03-22T01:59:22;10.40;99.90
43087;DHT22;28708;52.224;6.924;2024-03-22T02:01:47;10.40;99.90
43087;DHT22;28708;52.224;6.924;2024-03-22T02:04:14;10.40;99.90
43087;DHT22;28708;52.224;6.924;2024-03-22T02:06:40;10.50;99.90
43087;DHT22;28708;52.224;6.924;2024-03-22T02:09:06;10.50;99.90
43087;DHT22;28708;52.224;6.924;2024-03-22T02:11:36;10.50;99.90
43087;DHT22;28708;52.224;6.924;2024-03-22T02:14:03;10.50;99.90
43087;DHT22;28708;52.224;6.924;2024-03-22T02:16:29;10.50;99.90
43087;DHT22;28708;52.224;6.924;2024-03-22T02:18:55;10.60;99.90
43087;DHT22;28708;52.224;6.924;2024-03-22T02:21:20;10.60;99.90
43087;DHT22;28708;52.224;6.924;2024-03-22T02:23:46;10.60;99.90
43087;DHT22;28708;52.224;6.924;2024-03-22T02:26:12;10.60;99.90
43087;DHT22;28708;52.224;6.924;2024-03-22T02:28:37;10.60;99.90
43087;DHT22;28708;52.224;6.924;2024-03-22T02:31:03;10.60;99.90
43087;DHT22;28708;52.224;6.924;2024-03-22T02:33:29;10.60;99.90
43087;DHT22;28708;52.224;6.924;2024-03-22T02:35:55;10.60;99.90
43087;DHT22;28708;52.224;6.924;2024-03-22T02:38:22;10.70;99.90
43087;DHT22;28708;52.224;6.924;2024-03-22T02:40:49;10.70;99.90
43087;DHT22;28708;52.224;6.924;2024-03-22T02:43:15;10.70;99.90
43087;DHT22;28708;52.224;6.924;2024-03-22T02:45:43;10.70;99.90
43087;DHT22;28708;52.224;6.924;2024-03-22T02:48:08;10.70;99.90
43087;DHT22;28708;52.224;6.924;2024-03-22T02:50:35;10.80;99.90
43087;DHT22;28708;52.224;6.924;2024-03-22T02:53:01;10.80;99.90
43087;DHT22;28708;52.224;6.924;2024-03-22T02:55:27;10.80;99.90
43087;DHT22;28708;52.224;6.924;2024-03-22T02:57:52;10.80;99.90
43087;DHT22;28708;52.224;6.924;2024-03-22T03:00:18;10.80;99.90
43087;DHT22;28708;52.224;6.924;2024-03-22T03:02:45;10.80;99.90
43087;DHT22;28708;52.224;6.924;2024-03-22T03:05:10;10.80;99.90
43087;DHT22;28708;52.224;6.924;2024-03-22T03:07:36;10.80;99.90
43087;DHT22;28708;52.224;6.924;2024-03-22T03:10:02;10.80;99.90
43087;DHT22;28708;52.224;6.924;2024-03-22T03:12:27;10.80;99.90
43087;DHT22;28708;52.224;6.924;2024-03-22T03:14:53;10.80;99.90
43087;DHT22;28708;52.224;6.924;2024-03-22T03:17:19;10.80;99.90
43087;DHT22;28708;52.224;6.924;2024-03-22T03:19:44;10.80;99.90
43087;DHT22;28708;52.224;6.924;2024-03-22T03:22:10;10.80;99.90
43087;DHT22;28708;52.224;6.924;2024-03-22T03:24:36;10.80;99.90
43087;DHT22;28708;52.224;6.924;2024-03-22T03:27:01;10.90;99.90
43087;DHT22;28708;52.224;6.924;2024-03-22T03:29:31;10.90;99.90
43087;DHT22;28708;52.224;6.924;2024-03-22T03:31:56;10.90;99.90
43087;DHT22;28708;52.224;6.924;2024-03-22T03:34:22;10.90;99.90
43087;DHT22;28708;52.224;6.924;2024-03-22T03:36:48;10.90;99.90
43087;DHT22;28708;52.224;6.924;2024-03-22T03:39:13;10.90;99.90
43087;DHT22;28708;52.224;6.924;2024-03-22T03:41:39;10.90;99.90
43087;DHT22;28708;52.224;6.924;2024-03-22T03:44:05;11.00;99.90
43087;DHT22;28708;52.224;6.924;2024-03-22T03:46:31;11.00;99.90
43087;DHT22;28708;52.224;6.924;2024-03-22T03:48:56;11.00;99.90
43087;DHT22;28708;52.224;6.924;2024-03-22T03:51:22;11.00;99.90
43087;DHT22;28708;52.224;6.924;2024-03-22T03:53:48;11.00;99.90
43087;DHT22;28708;52.224;6.924;2024-03-22T03:56:13;11.00;99.90
43087;DHT22;28708;52.224;6.924;2024-03-22T03:58:39;11.00;99.90
43087;DHT22;28708;52.224;6.924;2024-03-22T04:01:08;11.00;99.90
43087;DHT22;28708;52.224;6.924;2024-03-22T04:03:35;11.00;99.90
43087;DHT22;28708;52.224;6.924;2024-03-22T04:06:01;11.00;99.90
43087;DHT22;28708;52.224;6.924;2024-03-22T04:08:27;11.00;99.90
43087;DHT22;28708;52.224;6.924;2024-03-22T04:10:54;11.00;99.90
43087;DHT22;28708;52.224;6.924;2024-03-22T04:13:23;11.00;99.90
43087;DHT22;28708;52.224;6.924;2024-03-22T04:15:48;11.00;99.90
43087;DHT22;28708;52.224;6.924;2024-03-22T04:18:14;11.00;99.90
43087;DHT22;28708;52.224;6.924;2024-03-22T04:20:39;11.00;99.90
43087;DHT22;28708;52.224;6.924;2024-03-22T04:23:05;11.10;99.90
43087;DHT22;28708;52.224;6.924;2024-03-22T04:25:31;11.00;99.90
43087;DHT22;28708;52.224;6.924;2024-03-22T04:27:56;11.00;99.90
43087;DHT22;28708;52.224;6.924;2024-03-22T04:30:22;11.00;99.90
43087;DHT22;28708;52.224;6.924;2024-03-22T04:32:48;11.00;99.90
43087;DHT22;28708;52.224;6.924;2024-03-22T04:35:14;11.10;99.90
43087;DHT22;28708;52.224;6.924;2024-03-22T04:37:39;11.00;99.90
43087;DHT22;28708;52.224;6.924;2024-03-22T04:40:05;11.10;99.90
43087;DHT22;28708;52.224;6.924;2024-03-22T04:42:31;11.10;99.90
43087;DHT22;28708;52.224;6.924;2024-03-22T04:44:57;11.10;99.90
43087;DHT22;28708;52.224;6.924;2024-03-22T04:47:23;11.10;99.90
43087;DHT22;28708;52.224;6.924;2024-03-22T04:49:49;11.10;99.90
43087;DHT22;28708;52.224;6.924;2024-03-22T04:52:14;11.20;99.90
43087;DHT22;28708;52.224;6.924;2024-03-22T04:54:40;11.10;99.90
43087;DHT22;28708;52.224;6.924;2024-03-22T04:57:06;11.10;99.90
43087;DHT22;28708;52.224;6.924;2024-03-22T04:59:31;11.20;99.90
43087;DHT22;28708;52.224;6.924;2024-03-22T05:01:57;11.20;99.90
43087;DHT22;28708;52.224;6.924;2024-03-22T05:04:23;11.20;99.90
43087;DHT22;28708;52.224;6.924;2024-03-22T05:06:48;11.20;99.90
43087;DHT22;28708;52.224;6.924;2024-03-22T05:09:14;11.20;99.90
43087;DHT22;28708;52.224;6.924;2024-03-22T05:11:40;11.20;99.90
43087;DHT22;28708;52.224;6.924;2024-03-22T05:14:05;11.20;99.90
43087;DHT22;28708;52.224;6.924;2024-03-22T05:16:31;11.20;99.90
43087;DHT22;28708;52.224;6.924;2024-03-22T05:18:56;11.20;99.90
43087;DHT22;28708;52.224;6.924;2024-03-22T05:21:22;11.20;99.90
43087;DHT22;28708;52.224;6.924;2024-03-22T05:23:48;11.20;99.90
43087;DHT22;28708;52.224;6.924;2024-03-22T05:26:13;11.30;99.90
43087;DHT22;28708;52.224;6.924;2024-03-22T05:28:39;11.30;99.90
43087;DHT22;28708;52.224;6.924;2024-03-22T05:31:05;11.30;99.90
43087;DHT22;28708;52.224;6.924;2024-03-22T05:33:31;11.30;99.90
43087;DHT22;28708;52.224;6.924;2024-03-22T05:35:59;11.30;99.90
43087;DHT22;28708;52.224;6.924;2024-03-22T05:38:24;11.30;99.90
43087;DHT22;28708;52.224;6.924;2024-03-22T05:40:50;11.30;99.90
43087;DHT22;28708;52.224;6.924;2024-03-22T05:43:16;11.30;99.90
43087;DHT22;28708;52.224;6.924;2024-03-22T05:45:41;11.30;99.90
43087;DHT22;28708;52.224;6.924;2024-03-22T05:48:07;11.30;99.90
43087;DHT22;28708;52.224;6.924;2024-03-22T05:50:33;11.30;99.90
43087;DHT22;28708;52.224;6.924;2024-03-22T05:52:58;11.30;99.90
43087;DHT22;28708;52.224;6.924;2024-03-22T05:55:24;11.30;99.90
43087;DHT22;28708;52.224;6.924;2024-03-22T05:57:52;11.30;99.90
43087;DHT22;28708;52.224;6.924;2024-03-22T06:00:18;11.30;99.90
43087;DHT22;28708;52.224;6.924;2024-03-22T06:02:44;11.30;99.90
43087;DHT22;28708;52.224;6.924;2024-03-22T06:05:09;11.30;99.90
43087;DHT22;28708;52.224;6.924;2024-03-22T06:07:35;11.30;99.90
43087;DHT22;28708;52.224;6.924;2024-03-22T06:10:08;11.40;99.90
43087;DHT22;28708;52.224;6.924;2024-03-22T06:12:33;11.30;99.90
43087;DHT22;28708;52.224;6.924;2024-03-22T06:14:59;11.30;99.90
43087;DHT22;28708;52.224;6.924;2024-03-22T06:17:24;11.30;99.90
43087;DHT22;28708;52.224;6.924;2024-03-22T06:19:50;11.30;99.90
43087;DHT22;28708;52.224;6.924;2024-03-22T06:22:16;11.30;99.90
43087;DHT22;28708;52.224;6.924;2024-03-22T06:24:42;11.30;99.90
43087;DHT22;28708;52.224;6.924;2024-03-22T06:27:09;11.30;99.90
43087;DHT22;28708;52.224;6.924;2024-03-22T06:29:35;11.30;99.90
43087;DHT22;28708;52.224;6.924;2024-03-22T06:32:00;11.30;99.90
43087;DHT22;28708;52.224;6.924;2024-03-22T06:34:26;11.30;99.90
43087;DHT22;28708;52.224;6.924;2024-03-22T06:36:52;11.30;99.90
43087;DHT22;28708;52.224;6.924;2024-03-22T06:39:17;11.30;99.90
43087;DHT22;28708;52.224;6.924;2024-03-22T06:41:43;11.30;99.90
43087;DHT22;28708;52.224;6.924;2024-03-22T06:44:08;11.30;99.90
43087;DHT22;28708;52.224;6.924;2024-03-22T06:46:37;11.40;99.90
43087;DHT22;28708;52.224;6.924;2024-03-22T06:49:03;11.40;99.90
43087;DHT22;28708;52.224;6.924;2024-03-22T06:51:29;11.30;99.90
43087;DHT22;28708;52.224;6.924;2024-03-22T06:53:54;11.40;99.90
43087;DHT22;28708;52.224;6.924;2024-03-22T06:56:20;11.30;99.90
43087;DHT22;28708;52.224;6.924;2024-03-22T06:58:46;11.30;99.90
43087;DHT22;28708;52.224;6.924;2024-03-22T07:01:12;11.30;99.90
43087;DHT22;28708;52.224;6.924;2024-03-22T07:03:38;11.30;99.90
43087;DHT22;28708;52.224;6.924;2024-03-22T07:06:03;11.30;99.90
43087;DHT22;28708;52.224;6.924;2024-03-22T07:08:31;11.20;99.90
43087;DHT22;28708;52.224;6.924;2024-03-22T07:11:04;11.20;99.90
43087;DHT22;28708;52.224;6.924;2024-03-22T07:13:30;11.20;99.90
43087;DHT22;28708;52.224;6.924;2024-03-22T07:15:55;11.20;99.90
43087;DHT22;28708;52.224;6.924;2024-03-22T07:18:21;11.20;99.90
43087;DHT22;28708;52.224;6.924;2024-03-22T07:20:46;11.30;99.90
43087;DHT22;28708;52.224;6.924;2024-03-22T07:23:13;11.30;99.90
43087;DHT22;28708;52.224;6.924;2024-03-22T07:25:39;11.40;99.90
43087;DHT22;28708;52.224;6.924;2024-03-22T07:28:04;11.40;99.90
43087;DHT22;28708;52.224;6.924;2024-03-22T07:30:33;11.40;99.90
43087;DHT22;28708;52.224;6.924;2024-03-22T07:32:59;11.30;99.90
43087;DHT22;28708;52.224;6.924;2024-03-22T07:35:24;11.40;99.90
43087;DHT22;28708;52.224;6.924;2024-03-22T07:37:50;11.40;99.90
43087;DHT22;28708;52.224;6.924;2024-03-22T07:40:16;11.40;99.90
43087;DHT22;28708;52.224;6.924;2024-03-22T07:42:42;11.50;99.90
43087;DHT22;28708;52.224;6.924;2024-03-22T07:45:07;11.50;99.90
43087;DHT22;28708;52.224;6.924;2024-03-22T07:47:34;11.50;99.90
43087;DHT22;28708;52.224;6.924;2024-03-22T07:49:59;11.60;99.90
43087;DHT22;28708;52.224;6.924;2024-03-22T07:52:25;11.40;99.90
43087;DHT22;28708;52.224;6.924;2024-03-22T07:54:51;11.40;99.90
43087;DHT22;28708;52.224;6.924;2024-03-22T07:57:16;11.40;99.90
43087;DHT22;28708;52.224;6.924;2024-03-22T07:59:42;11.40;99.90
43087;DHT22;28708;52.224;6.924;2024-03-22T08:02:09;11.40;99.90
43087;DHT22;28708;52.224;6.924;2024-03-22T08:04:35;11.40;99.90
43087;DHT22;28708;52.224;6.924;2024-03-22T08:07:00;11.30;99.90
43087;DHT22;28708;52.224;6.924;2024-03-22T08:09:26;11.40;99.90
43087;DHT22;28708;52.224;6.924;2024-03-22T08:11:52;11.40;99.90
43087;DHT22;28708;52.224;6.924;2024-03-22T08:14:17;11.50;99.90
43087;DHT22;28708;52.224;6.924;2024-03-22T08:16:43;11.50;99.90
43087;DHT22;28708;52.224;6.924;2024-03-22T08:19:08;11.50;99.90
43087;DHT22;28708;52.224;6.924;2024-03-22T08:21:34;11.50;99.90
43087;DHT22;28708;52.224;6.924;2024-03-22T08:24:00;11.50;99.90
43087;DHT22;28708;52.224;6.924;2024-03-22T08:26:25;11.40;99.90
43087;DHT22;28708;52.224;6.924;2024-03-22T08:28:51;11.30;99.90
43087;DHT22;28708;52.224;6.924;2024-03-22T08:31:17;11.40;99.90
43087;DHT22;28708;52.224;6.924;2024-03-22T08:33:43;11.50;99.90
43087;DHT22;28708;52.224;6.924;2024-03-22T08:36:09;11.50;99.90
43087;DHT22;28708;52.224;6.924;2024-03-22T08:38:37;11.50;99.90
43087;DHT22;28708;52.224;6.924;2024-03-22T08:41:06;11.40;99.90
43087;DHT22;28708;52.224;6.924;2024-03-22T08:43:32;11.30;99.90
43087;DHT22;28708;52.224;6.924;2024-03-22T08:45:57;11.30;99.90
43087;DHT22;28708;52.224;6.924;2024-03-22T08:48:26;11.40;99.90
43087;DHT22;28708;52.224;6.924;2024-03-22T08:50:51;11.40;99.90
43087;DHT22;28708;52.224;6.924;2024-03-22T08:53:17;11.40;99.90
43087;DHT22;28708;52.224;6.924;2024-03-22T08:55:47;11.30;99.90
43087;DHT22;28708;52.224;6.924;2024-03-22T08:58:15;11.30;99.90
43087;DHT22;28708;52.224;6.924;2024-03-22T09:00:43;11.20;99.90
43087;DHT22;28708;52.224;6.924;2024-03-22T09:03:09;11.20;99.90
43087;DHT22;28708;52.224;6.924;2024-03-22T09:05:35;11.20;99.90
43087;DHT22;28708;52.224;6.924;2024-03-22T09:08:00;11.20;99.90
43087;DHT22;28708;52.224;6.924;2024-03-22T09:10:27;11.10;99.90
43087;DHT22;28708;52.224;6.924;2024-03-22T09:12:52;11.10;99.90
43087;DHT22;28708;52.224;6.924;2024-03-22T09:15:18;11.10;99.90
43087;DHT22;28708;52.224;6.924;2024-03-22T09:17:44;11.10;99.90
43087;DHT22;28708;52.224;6.924;2024-03-22T09:20:10;11.10;99.90
43087;DHT22;28708;52.224;6.924;2024-03-22T09:22:36;11.10;99.90
43087;DHT22;28708;52.224;6.924;2024-03-22T09:25:02;11.00;99.90
43087;DHT22;28708;52.224;6.924;2024-03-22T09:27:27;11.00;99.90
43087;DHT22;28708;52.224;6.924;2024-03-22T09:29:53;11.10;99.90
43087;DHT22;28708;52.224;6.924;2024-03-22T09:32:19;11.00;99.90
43087;DHT22;28708;52.224;6.924;2024-03-22T09:34:53;11.00;99.90
43087;DHT22;28708;52.224;6.924;2024-03-22T09:37:19;11.10;99.90
43087;DHT22;28708;52.224;6.924;2024-03-22T09:39:45;11.10;99.90
43087;DHT22;28708;52.224;6.924;2024-03-22T09:42:15;11.10;99.90
43087;DHT22;28708;52.224;6.924;2024-03-22T09:44:47;11.10;99.90
43087;DHT22;28708;52.224;6.924;2024-03-22T09:47:15;11.10;99.90
43087;DHT22;28708;52.224;6.924;2024-03-22T09:49:41;11.00;99.90
43087;DHT22;28708;52.224;6.924;2024-03-22T09:52:12;11.00;99.90
43087;DHT22;28708;52.224;6.924;2024-03-22T09:54:38;11.00;99.90
43087;DHT22;28708;52.224;6.924;2024-03-22T09:57:04;11.00;99.90
43087;DHT22;28708;52.224;6.924;2024-03-22T09:59:30;11.00;99.90
43087;DHT22;28708;52.224;6.924;2024-03-22T10:01:56;11.00;99.90
43087;DHT22;28708;52.224;6.924;2024-03-22T10:04:23;10.90;99.90
43087;DHT22;28708;52.224;6.924;2024-03-22T10:06:49;11.00;99.90
43087;DHT22;28708;52.224;6.924;2024-03-22T10:09:16;11.00;99.90
43087;DHT22;28708;52.224;6.924;2024-03-22T10:11:44;11.10;99.90
43087;DHT22;28708;52.224;6.924;2024-03-22T10:14:09;11.00;99.90
43087;DHT22;28708;52.224;6.924;2024-03-22T10:16:36;11.00;99.90
43087;DHT22;28708;52.224;6.924;2024-03-22T10:19:02;11.00;99.90
43087;DHT22;28708;52.224;6.924;2024-03-22T10:21:28;10.90;99.90
43087;DHT22;28708;52.224;6.924;2024-03-22T10:23:54;10.80;99.90
43087;DHT22;28708;52.224;6.924;2024-03-22T10:26:20;10.80;99.90
43087;DHT22;28708;52.224;6.924;2024-03-22T10:28:49;10.80;99.90
43087;DHT22;28708;52.224;6.924;2024-03-22T10:31:15;10.80;99.90
43087;DHT22;28708;52.224;6.924;2024-03-22T10:33:41;10.70;99.90
43087;DHT22;28708;52.224;6.924;2024-03-22T10:36:07;10.80;99.90
43087;DHT22;28708;52.224;6.924;2024-03-22T10:38:36;10.80;99.90
43087;DHT22;28708;52.224;6.924;2024-03-22T10:41:03;10.80;99.90
43087;DHT22;28708;52.224;6.924;2024-03-22T10:43:31;10.70;99.90
43087;DHT22;28708;52.224;6.924;2024-03-22T10:46:02;10.60;99.90
43087;DHT22;28708;52.224;6.924;2024-03-22T10:48:31;10.60;99.90
43087;DHT22;28708;52.224;6.924;2024-03-22T10:51:00;10.70;99.90
43087;DHT22;28708;52.224;6.924;2024-03-22T10:53:30;10.70;99.90
43087;DHT22;28708;52.224;6.924;2024-03-22T10:55:57;10.50;99.90
43087;DHT22;28708;52.224;6.924;2024-03-22T10:58:25;10.40;99.90
43087;DHT22;28708;52.224;6.924;2024-03-22T11:00:52;10.50;99.90
43087;DHT22;28708;52.224;6.924;2024-03-22T11:03:22;10.60;99.90
43087;DHT22;28708;52.224;6.924;2024-03-22T11:05:56;10.60;99.90
43087;DHT22;28708;52.224;6.924;2024-03-22T11:08:29;10.80;99.90
43087;DHT22;28708;52.224;6.924;2024-03-22T11:10:56;10.50;99.90
43087;DHT22;28708;52.224;6.924;2024-03-22T11:13:23;10.60;99.90
43087;DHT22;28708;52.224;6.924;2024-03-22T11:15:52;10.50;99.90
43087;DHT22;28708;52.224;6.924;2024-03-22T11:18:17;10.40;99.90
43087;DHT22;28708;52.224;6.924;2024-03-22T11:20:43;10.40;99.90
43087;DHT22;28708;52.224;6.924;2024-03-22T11:23:12;10.40;99.90
43087;DHT22;28708;52.224;6.924;2024-03-22T11:25:37;10.40;99.90
43087;DHT22;28708;52.224;6.924;2024-03-22T11:28:03;10.40;99.90
43087;DHT22;28708;52.224;6.924;2024-03-22T11:30:30;10.50;99.90
43087;DHT22;28708;52.224;6.924;2024-03-22T11:32:56;10.50;99.90
43087;DHT22;28708;52.224;6.924;2024-03-22T11:35:22;10.40;99.90
43087;DHT22;28708;52.224;6.924;2024-03-22T11:37:50;10.50;99.90
43087;DHT22;28708;52.224;6.924;2024-03-22T11:40:16;10.40;99.90
43087;DHT22;28708;52.224;6.924;2024-03-22T11:42:47;10.50;99.90
43087;DHT22;28708;52.224;6.924;2024-03-22T11:45:16;10.50;99.90
43087;DHT22;28708;52.224;6.924;2024-03-22T11:47:44;10.40;99.90
43087;DHT22;28708;52.224;6.924;2024-03-22T11:50:11;10.40;99.90
43087;DHT22;28708;52.224;6.924;2024-03-22T11:52:43;10.30;99.90
43087;DHT22;28708;52.224;6.924;2024-03-22T11:55:10;10.40;99.90
43087;DHT22;28708;52.224;6.924;2024-03-22T11:57:36;10.30;99.90
43087;DHT22;28708;52.224;6.924;2024-03-22T12:00:03;10.30;99.90
43087;DHT22;28708;52.224;6.924;2024-03-22T12:02:38;10.40;99.90
43087;DHT22;28708;52.224;6.924;2024-03-22T12:05:04;10.40;99.90
43087;DHT22;28708;52.224;6.924;2024-03-22T12:07:31;10.30;99.90
43087;DHT22;28708;52.224;6.924;2024-03-22T12:09:57;10.30;99.90
43087;DHT22;28708;52.224;6.924;2024-03-22T12:12:23;10.30;99.90
43087;DHT22;28708;52.224;6.924;2024-03-22T12:14:49;10.40;99.90
43087;DHT22;28708;52.224;6.924;2024-03-22T12:17:18;10.40;99.90
43087;DHT22;28708;52.224;6.924;2024-03-22T12:19:44;10.40;99.90
43087;DHT22;28708;52.224;6.924;2024-03-22T12:22:10;10.40;99.90
43087;DHT22;28708;52.224;6.924;2024-03-22T12:24:36;10.20;99.90
43087;DHT22;28708;52.224;6.924;2024-03-22T12:27:02;10.30;99.90
43087;DHT22;28708;52.224;6.924;2024-03-22T12:29:28;10.30;99.90
43087;DHT22;28708;52.224;6.924;2024-03-22T12:31:54;10.30;99.90
43087;DHT22;28708;52.224;6.924;2024-03-22T12:34:19;10.30;99.90
43087;DHT22;28708;52.224;6.924;2024-03-22T12:36:45;10.30;99.90
43087;DHT22;28708;52.224;6.924;2024-03-22T12:39:11;10.20;99.90
43087;DHT22;28708;52.224;6.924;2024-03-22T12:41:37;10.30;99.90
43087;DHT22;28708;52.224;6.924;2024-03-22T12:44:03;10.20;99.90
43087;DHT22;28708;52.224;6.924;2024-03-22T12:46:29;10.30;99.90
43087;DHT22;28708;52.224;6.924;2024-03-22T12:48:55;10.40;99.90
43087;DHT22;28708;52.224;6.924;2024-03-22T12:51:20;10.40;99.90
43087;DHT22;28708;52.224;6.924;2024-03-22T12:53:46;10.40;99.90
43087;DHT22;28708;52.224;6.924;2024-03-22T12:56:12;10.40;99.90
43087;DHT22;28708;52.224;6.924;2024-03-22T12:58:38;10.40;99.90
43087;DHT22;28708;52.224;6.924;2024-03-22T13:01:05;10.40;99.90
43087;DHT22;28708;52.224;6.924;2024-03-22T13:03:34;10.50;99.90
43087;DHT22;28708;52.224;6.924;2024-03-22T13:05:59;10.40;99.90
43087;DHT22;28708;52.224;6.924;2024-03-22T13:08:25;10.40;99.90
43087;DHT22;28708;52.224;6.924;2024-03-22T13:10:51;10.40;99.90
43087;DHT22;28708;52.224;6.924;2024-03-22T13:13:18;10.30;99.90
43087;DHT22;28708;52.224;6.924;2024-03-22T13:15:43;10.40;99.90
43087;DHT22;28708;52.224;6.924;2024-03-22T13:18:09;10.30;99.90
43087;DHT22;28708;52.224;6.924;2024-03-22T13:20:35;10.30;99.90
43087;DHT22;28708;52.224;6.924;2024-03-22T13:23:02;10.30;99.90
43087;DHT22;28708;52.224;6.924;2024-03-22T13:25:28;10.30;99.90
43087;DHT22;28708;52.224;6.924;2024-03-22T13:27:54;10.30;99.90
43087;DHT22;28708;52.224;6.924;2024-03-22T13:30:20;10.30;99.90
43087;DHT22;28708;52.224;6.924;2024-03-22T13:32:45;10.40;99.90
43087;DHT22;28708;52.224;6.924;2024-03-22T13:35:11;10.40;99.90
43087;DHT22;28708;52.224;6.924;2024-03-22T13:37:37;10.60;99.90
43087;DHT22;28708;52.224;6.924;2024-03-22T13:40:06;10.60;99.90
43087;DHT22;28708;52.224;6.924;2024-03-22T13:42:32;10.60;99.90
43087;DHT22;28708;52.224;6.924;2024-03-22T13:44:57;10.50;99.90
43087;DHT22;28708;52.224;6.924;2024-03-22T13:47:23;10.60;99.90
43087;DHT22;28708;52.224;6.924;2024-03-22T13:49:50;10.60;99.90
43087;DHT22;28708;52.224;6.924;2024-03-22T13:52:15;10.50;99.90
43087;DHT22;28708;52.224;6.924;2024-03-22T13:54:41;10.70;99.90
43087;DHT22;28708;52.224;6.924;2024-03-22T13:57:06;10.60;99.90
43087;DHT22;28708;52.224;6.924;2024-03-22T13:59:32;10.60;99.90
43087;DHT22;28708;52.224;6.924;2024-03-22T14:01:59;10.60;99.90
43087;DHT22;28708;52.224;6.924;2024-03-22T14:04:24;10.60;99.90
43087;DHT22;28708;52.224;6.924;2024-03-22T14:06:51;10.70;99.90
43087;DHT22;28708;52.224;6.924;2024-03-22T14:09:20;10.70;99.90
43087;DHT22;28708;52.224;6.924;2024-03-22T14:11:45;10.80;99.90
43087;DHT22;28708;52.224;6.924;2024-03-22T14:14:14;10.80;99.90
43087;DHT22;28708;52.224;6.924;2024-03-22T14:16:40;10.80;99.90
43087;DHT22;28708;52.224;6.924;2024-03-22T14:19:09;10.70;99.90
43087;DHT22;28708;52.224;6.924;2024-03-22T14:21:35;10.80;99.90
43087;DHT22;28708;52.224;6.924;2024-03-22T14:24:01;10.80;99.90
43087;DHT22;28708;52.224;6.924;2024-03-22T14:26:28;10.80;99.90
43087;DHT22;28708;52.224;6.924;2024-03-22T14:28:54;10.70;99.90
43087;DHT22;28708;52.224;6.924;2024-03-22T14:31:22;10.70;99.90
43087;DHT22;28708;52.224;6.924;2024-03-22T14:33:47;10.70;99.90
43087;DHT22;28708;52.224;6.924;2024-03-22T14:36:13;10.70;99.90
43087;DHT22;28708;52.224;6.924;2024-03-22T14:38:39;10.70;99.90
43087;DHT22;28708;52.224;6.924;2024-03-22T14:41:05;10.70;99.90
43087;DHT22;28708;52.224;6.924;2024-03-22T14:43:30;10.70;99.90
43087;DHT22;28708;52.224;6.924;2024-03-22T14:46:00;10.80;99.90
43087;DHT22;28708;52.224;6.924;2024-03-22T14:48:28;10.70;99.90
43087;DHT22;28708;52.224;6.924;2024-03-22T14:50:54;10.80;99.90
43087;DHT22;28708;52.224;6.924;2024-03-22T14:53:20;10.70;99.90
43087;DHT22;28708;52.224;6.924;2024-03-22T14:55:58;10.70;99.90
43087;DHT22;28708;52.224;6.924;2024-03-22T14:58:25;10.70;99.90
43087;DHT22;28708;52.224;6.924;2024-03-22T15:00:53;10.70;99.90
43087;DHT22;28708;52.224;6.924;2024-03-22T15:03:19;10.70;99.90
43087;DHT22;28708;52.224;6.924;2024-03-22T15:05:44;10.80;99.90
43087;DHT22;28708;52.224;6.924;2024-03-22T15:08:10;10.90;99.90
43087;DHT22;28708;52.224;6.924;2024-03-22T15:10:37;10.70;99.90
43087;DHT22;28708;52.224;6.924;2024-03-22T15:13:03;10.70;99.90
43087;DHT22;28708;52.224;6.924;2024-03-22T15:15:29;10.70;99.90
43087;DHT22;28708;52.224;6.924;2024-03-22T15:17:54;10.70;99.90
43087;DHT22;28708;52.224;6.924;2024-03-22T15:20:20;10.70;99.90
43087;DHT22;28708;52.224;6.924;2024-03-22T15:22:46;10.50;99.90